Meteorología y climatología de Navarra
Datos de la estación - Meteo Navarra

Estación de Tudela (Montes del Cierzo) GN

Altitud 314 m.


Datos desde el 16/09/2020 hasta el 17/09/2020 en horario solar
Los datos son PROVISIONALES

Anterior Página 1 de 1 Siguiente Descargar: Formato para Excel 2000 o superior   Formato csv   Formato para OpenOffice Calc
Fecha Temperatura Humedad relativa Radiación global Insolación Precipitación Vel. viento 10 m Vel. viento 10 m Dir. viento 10 m
ºC % W/m² s l/m² m/s km/h º
16/09/2020 0:00 18.8 68 0.0 0 0.0 2.2 8.0 216
16/09/2020 0:10 19.1 66 0.0 0 0.0 2.3 8.4 222
16/09/2020 0:20 19.0 68 0.0 0 0.0 1.9 6.8 233
16/09/2020 0:30 18.7 68 0.0 0 0.0 2.0 7.1 267
16/09/2020 0:40 18.4 66 0.0 0 0.0 1.8 6.5 263
16/09/2020 0:50 18.3 68 0.0 0 0.0 2.2 7.7 253
16/09/2020 1:00 18.2 70 0.0 0 0.0 2.6 9.3 231
16/09/2020 1:10 17.9 71 0.0 0 0.0 2.5 8.9 220
16/09/2020 1:20 18.0 70 0.0 0 0.0 3.0 10.6 217
16/09/2020 1:30 17.8 71 0.0 0 0.0 3.2 11.5 219
16/09/2020 1:40 17.5 72 0.0 0 0.0 3.3 11.9 223
16/09/2020 1:50 17.6 72 0.0 0 0.0 2.9 10.6 223
16/09/2020 2:00 17.4 74 0.0 0 0.0 2.7 9.8 233
16/09/2020 2:10 17.1 75 0.0 0 0.0 2.3 8.2 230
16/09/2020 2:20 17.0 75 0.0 0 0.0 2.3 8.3 222
16/09/2020 2:30 17.2 74 0.0 0 0.0 2.7 9.6 229
16/09/2020 2:40 17.2 75 0.0 0 0.0 2.4 8.6 228
16/09/2020 2:50 17.1 75 0.0 0 0.0 2.6 9.4 242
16/09/2020 3:00 16.9 76 0.0 0 0.0 2.5 8.9 232
16/09/2020 3:10 16.9 75 0.0 0 0.0 2.5 8.8 224
16/09/2020 3:20 17.0 75 0.0 0 0.0 2.7 9.7 240
16/09/2020 3:30 16.8 76 0.0 0 0.0 2.7 9.7 238
16/09/2020 3:40 16.7 76 0.0 0 0.0 2.7 9.8 226
16/09/2020 3:50 16.7 76 0.0 0 0.0 2.6 9.4 242
16/09/2020 4:00 16.7 76 0.0 0 0.0 2.8 10.2 235
16/09/2020 4:10 16.4 76 0.0 0 0.0 2.8 10.2 228
16/09/2020 4:20 16.2 76 0.0 0 0.0 2.5 8.9 228
16/09/2020 4:30 16.0 77 0.0 0 0.0 2.8 9.9 224
16/09/2020 4:40 16.0 76 0.0 0 0.0 2.5 8.9 227
16/09/2020 4:50 15.8 77 0.0 0 0.0 2.9 10.4 227
16/09/2020 5:00 15.7 77 0.0 0 0.0 3.0 10.8 224
16/09/2020 5:10 15.8 77 0.0 0 0.0 3.1 11.1 227
16/09/2020 5:20 15.7 77 0.0 0 0.0 2.8 10.0 229
16/09/2020 5:30 15.7 77 0.0 0 0.0 2.8 9.9 224
16/09/2020 5:40 15.7 77 0.0 0 0.0 2.9 10.4 221
16/09/2020 5:50 15.6 77 0.0 0 0.0 2.9 10.6 223
16/09/2020 6:00 15.7 77 0.0 0 0.0 2.9 10.4 223
16/09/2020 6:10 15.8 77 19.8 0 0.0 2.6 9.2 226
16/09/2020 6:20 16.0 76 35.4 150 0.0 2.5 9.1 225
16/09/2020 6:30 16.3 75 53.9 294 0.0 2.1 7.6 231
16/09/2020 6:40 16.9 74 79.4 600 0.0 1.1 3.8 240
16/09/2020 6:50 17.7 73 106.1 600 0.0 1.1 4.0 235
16/09/2020 7:00 18.4 72 134.3 600 0.0 1.3 4.6 251
16/09/2020 7:10 19.1 71 164.0 600 0.0 0.9 3.3 252
16/09/2020 7:20 19.7 68 192.1 600 0.0 0.6 2.3 276
16/09/2020 7:30 20.8 62 222.5 600 0.0 0.6 2.1 336
16/09/2020 7:40 21.0 62 248.1 600 0.0 1.1 4.1 9
16/09/2020 7:50 21.2 61 278.7 600 0.0 0.6 2.0 9
16/09/2020 8:00 21.7 62 309.1 600 0.0 0.6 2.1 354
16/09/2020 8:10 22.1 60 334.8 600 0.0 1.0 3.5 2
16/09/2020 8:20 22.7 58 358.7 600 0.0 1.4 5.2 342
16/09/2020 8:30 23.2 56 387.0 600 0.0 1.3 4.8 330
16/09/2020 8:40 23.6 55 412.4 600 0.0 1.2 4.5 340
16/09/2020 8:50 24.2 54 438.4 600 0.0 1.5 5.4 353
16/09/2020 9:00 23.8 54 464.8 600 0.0 1.8 6.6 5
16/09/2020 9:10 24.0 54 492.3 600 0.0 1.4 5.0 1
16/09/2020 9:20 24.3 53 517.2 600 0.0 1.3 4.5 19
16/09/2020 9:30 24.9 51 544.1 600 0.0 1.0 3.6 2
16/09/2020 9:40 25.4 50 569.5 600 0.0 0.9 3.1 97
16/09/2020 9:50 25.7 50 591.9 600 0.0 0.7 2.7 128
16/09/2020 10:00 26.3 48 614.1 600 0.0 0.6 2.3 120
16/09/2020 10:10 27.0 48 637.0 600 0.0 0.4 1.5 154
16/09/2020 10:20 27.1 48 654.0 600 0.0 1.0 3.6 127
16/09/2020 10:30 27.3 45 670.7 600 0.0 0.6 2.3 98
16/09/2020 10:40 27.9 44 681.5 600 0.0 0.5 1.7 165
16/09/2020 10:50 28.2 44 694.7 600 0.0 0.8 2.7 129
16/09/2020 11:00 28.5 43 706.5 600 0.0 0.8 3.0 136
16/09/2020 11:10 28.6 44 697.4 600 0.0 1.5 5.3 106
16/09/2020 11:20 28.4 45 721.0 600 0.0 2.2 7.8 102
16/09/2020 11:30 28.4 44 727.2 600 0.0 2.4 8.5 110
16/09/2020 11:40 28.6 44 738.8 600 0.0 1.6 5.9 119
16/09/2020 11:50 29.0 43 742.3 600 0.0 1.6 5.8 106
16/09/2020 12:00 29.3 42 734.7 600 0.0 2.0 7.2 125
16/09/2020 12:10 29.2 44 746.6 600 0.0 2.2 7.8 139
16/09/2020 12:20 29.4 40 737.9 600 0.0 1.1 3.9 141
16/09/2020 12:30 30.0 38 731.8 600 0.0 1.2 4.2 170
16/09/2020 12:40 30.4 39 726.5 600 0.0 0.9 3.3 129
16/09/2020 12:50 30.8 36 734.3 600 0.0 1.0 3.4 155
16/09/2020 13:00 30.4 40 729.6 600 0.0 1.8 6.4 140
16/09/2020 13:10 30.7 38 729.4 600 0.0 1.3 4.5 144
16/09/2020 13:20 31.1 36 697.5 600 0.0 0.9 3.1 142
16/09/2020 13:30 31.4 35 699.3 600 0.0 1.5 5.3 150
16/09/2020 13:40 31.4 36 679.5 600 0.0 1.2 4.2 136
16/09/2020 13:50 31.4 37 639.5 600 0.0 1.7 6.2 139
16/09/2020 14:00 31.8 32 657.9 600 0.0 0.9 3.3 139
16/09/2020 14:10 31.9 33 577.2 600 0.0 1.7 6.3 133
16/09/2020 14:20 31.9 30 595.0 600 0.0 1.3 4.8 139
16/09/2020 14:30 32.4 28 370.0 344 0.0 0.6 2.0 159
16/09/2020 14:40 32.2 31 292.3 120 0.0 0.6 2.0 182
16/09/2020 14:50 31.6 34 253.8 0 0.0 1.0 3.7 146
16/09/2020 15:00 31.3 33 325.7 440 0.0 0.3 1.0 145
16/09/2020 15:10 32.3 30 411.8 600 0.0 0.5 1.8 185
16/09/2020 15:20 32.5 31 509.3 600 0.0 0.7 2.4 99
16/09/2020 15:30 33.2 28 481.8 600 0.0 0.6 2.2 141
16/09/2020 15:40 33.1 28 453.3 600 0.0 0.7 2.3 123
16/09/2020 15:50 33.1 29 405.6 600 0.0 0.8 3.0 140
16/09/2020 16:00 33.0 28 344.4 600 0.0 0.5 1.9 121
16/09/2020 16:10 33.3 27 303.2 600 0.0 0.5 1.7 66
16/09/2020 16:20 33.3 29 251.8 600 0.0 0.7 2.5 108
16/09/2020 16:30 32.8 28 197.9 600 0.0 1.8 6.6 3
16/09/2020 16:40 31.9 30 144.9 272 0.0 1.6 5.8 14
16/09/2020 16:50 31.3 32 88.5 0 0.0 1.4 4.9 18
16/09/2020 17:00 30.2 38 76.6 0 0.0 0.8 3.0 121
16/09/2020 17:10 29.6 36 92.3 0 0.0 0.6 2.3 52
16/09/2020 17:20 29.6 40 49.3 0 0.0 0.2 0.6 122
16/09/2020 17:30 29.3 39 34.3 0 0.0 0.1 0.3 356
16/09/2020 17:40 28.7 39 24.9 0 0.0 0.3 1.2 339
16/09/2020 17:50 28.2 40 8.6 0 0.0 0.6 2.2 344
16/09/2020 18:00 27.9 40 0.0 0 0.0 0.7 2.7 15
16/09/2020 18:10 27.0 47 0.0 0 0.0 0.2 0.5 18
16/09/2020 18:20 26.1 51 0.0 0 0.0 0.9 3.2 272
16/09/2020 18:30 25.4 51 0.0 0 0.0 0.4 1.5 284
16/09/2020 18:40 25.1 50 0.0 0 0.0 0.0 0.1 286
16/09/2020 18:50 25.0 53 0.0 0 0.0 0.2 0.6 281
16/09/2020 19:00 24.4 58 0.0 0 0.0 0.7 2.6 246
16/09/2020 19:10 24.1 56 0.0 0 0.0 1.2 4.4 213
16/09/2020 19:20 23.9 55 0.0 0 0.0 1.3 4.7 200
16/09/2020 19:30 23.8 55 0.0 0 0.0 1.3 4.5 212
16/09/2020 19:40 23.8 56 0.0 0 0.0 1.4 5.2 223
16/09/2020 19:50 23.6 55 0.0 0 0.0 1.5 5.3 239
16/09/2020 20:00 23.7 52 0.0 0 0.0 1.1 3.9 232
16/09/2020 20:10 24.1 52 0.0 0 0.0 1.3 4.8 239
16/09/2020 20:20 23.5 58 0.0 0 0.0 2.9 10.4 224
16/09/2020 20:30 23.1 55 0.0 0 0.0 2.8 10.1 220
16/09/2020 20:40 23.1 56 0.0 0 0.0 2.6 9.3 238
16/09/2020 20:50 22.9 54 0.0 0 0.0 1.5 5.2 320
16/09/2020 21:00 23.3 56 0.0 0 0.0 1.5 5.3 297
16/09/2020 21:10 23.0 59 0.0 0 0.0 2.2 7.8 224
16/09/2020 21:20 22.8 59 0.0 0 0.0 2.0 7.2 213
16/09/2020 21:30 22.6 59 0.0 0 0.0 1.6 5.7 195
16/09/2020 21:40 22.6 54 0.0 0 0.0 2.1 7.4 196
16/09/2020 21:50 22.4 57 0.0 0 0.0 1.8 6.3 210
16/09/2020 22:00 21.9 57 0.0 0 0.0 2.3 8.4 280
16/09/2020 22:10 21.9 56 0.0 0 0.0 2.0 7.3 224
16/09/2020 22:20 21.6 56 0.0 0 0.0 2.4 8.7 184
16/09/2020 22:30 21.5 58 0.0 0 0.0 1.7 6.2 196
16/09/2020 22:40 20.7 63 0.0 0 0.0 2.2 7.8 217
16/09/2020 22:50 20.7 59 0.0 0 0.0 1.4 4.9 252
16/09/2020 23:00 21.0 56 0.0 0 0.0 1.5 5.5 269
16/09/2020 23:10 20.5 62 0.0 0 0.0 0.9 3.1 109
16/09/2020 23:20 20.7 61 0.0 0 0.0 1.5 5.5 94
16/09/2020 23:30 21.0 61 0.0 0 0.0 1.1 3.8 119
16/09/2020 23:40 20.7 61 0.0 0 0.0 0.5 1.7 153
16/09/2020 23:50 20.3 62 0.0 0 0.0 0.6 2.3 151
Anterior Página 1 de 1 Siguiente

NOTA: Tipo de datos según el color:
   - Valores diarios o 10 minutos correctos
   - Valores diarios calculados a partir de un número de datos 10 minutos menor que 144 y mayor que 120, o de un número de datos semihorarios menor que 48 y mayor que 40 (caso de las estaciones de INTIA y del Ministerio)
   - Valores diez minutos estimados


Contacto        Enlaces        Aviso legal